Terminal Aerodrome Forecast
Issued by NWS North Platte, NE

Home | Current Version | Previous Version | Text Only | Print | Product List | Glossary On
Versions: 1 2 3 4 5 6 7 8 9 10 11 12 13 14 15 16 17 18 19 20 21 22 23
000
FTUS43 KLBF 262320
TAFVTN
TAF
KVTN 262320Z 2700/2724 34004KT P6SM SCT035
     FM271000 35002KT P6SM SCT007
      TEMPO 2711/2714 3SM BR OVC007
     FM271600 06006KT P6SM FEW250
     FM271900 08008KT P6SM BKN100
     FM272000 09009KT P6SM OVC070=

USA.gov is the U.S. government's official web portal to all federal, state and local government web resources and services.